Comunidad Estella, Puerto Rico
Current Conditions -  °F | °C
As of 12:50 PM on Sunday 21 Dec 2014 (Local Time) from TJBQ Reporting Station
Few Clouds Few Clouds  
Wind Chill: 82°   Ceiling: Unl
Heat Index: 85°   Visibility: 10mi
Dew Point: 66°   Wind: 23mph
Humidity: 58%   Direction: 80°E
Pressure: 30.08"   Gusts: 30mph
Location:  18.3427°N, 67.2504°W
Report Text: TJBQ 211650Z 08020G26KT 10SM FEW030 28/19 A3008 RMK RWY 8 ATIS B
Loading
Personal Weather Stations






























Interactive Weather Map New forecast layout! Learn more

10-Day Weather Forecast

Advertisements
Track Severe Weather on mobile